sensor_id;sensor_type;location;lat;lon;timestamp;temperature;humidity
63017;DHT22;50274;45.640;11.756;2022-12-07T00:01:43;4.50;78.70
63017;DHT22;50274;45.640;11.756;2022-12-07T00:04:12;4.50;78.70
63017;DHT22;50274;45.640;11.756;2022-12-07T00:06:43;4.50;78.70
63017;DHT22;50274;45.640;11.756;2022-12-07T00:09:12;4.50;78.60
63017;DHT22;50274;45.640;11.756;2022-12-07T00:11:38;4.50;78.60
63017;DHT22;50274;45.640;11.756;2022-12-07T00:14:07;4.50;78.50
63017;DHT22;50274;45.640;11.756;2022-12-07T00:16:33;4.50;78.50
63017;DHT22;50274;45.640;11.756;2022-12-07T00:19:00;4.50;78.50
63017;DHT22;50274;45.640;11.756;2022-12-07T00:21:34;4.40;78.40
63017;DHT22;50274;45.640;11.756;2022-12-07T00:24:01;4.40;78.40
63017;DHT22;50274;45.640;11.756;2022-12-07T00:26:29;4.40;78.40
63017;DHT22;50274;45.640;11.756;2022-12-07T00:29:00;4.40;78.40
63017;DHT22;50274;45.640;11.756;2022-12-07T00:31:28;4.30;78.40
63017;DHT22;50274;45.640;11.756;2022-12-07T00:33:55;4.30;78.40
63017;DHT22;50274;45.640;11.756;2022-12-07T00:36:22;4.30;78.50
63017;DHT22;50274;45.640;11.756;2022-12-07T00:38:49;4.30;78.50
63017;DHT22;50274;45.640;11.756;2022-12-07T00:41:17;4.30;78.60
63017;DHT22;50274;45.640;11.756;2022-12-07T00:43:44;4.30;78.60
63017;DHT22;50274;45.640;11.756;2022-12-07T00:46:12;4.30;78.50
63017;DHT22;50274;45.640;11.756;2022-12-07T00:48:38;4.30;78.50
63017;DHT22;50274;45.640;11.756;2022-12-07T00:51:04;4.30;78.60
63017;DHT22;50274;45.640;11.756;2022-12-07T00:53:30;4.30;78.60
63017;DHT22;50274;45.640;11.756;2022-12-07T00:55:56;4.30;78.60
63017;DHT22;50274;45.640;11.756;2022-12-07T00:58:23;4.30;78.60
63017;DHT22;50274;45.640;11.756;2022-12-07T01:00:51;4.30;78.50
63017;DHT22;50274;45.640;11.756;2022-12-07T01:03:17;4.20;78.50
63017;DHT22;50274;45.640;11.756;2022-12-07T01:05:51;4.20;78.50
63017;DHT22;50274;45.640;11.756;2022-12-07T01:08:18;4.20;78.50
63017;DHT22;50274;45.640;11.756;2022-12-07T01:10:44;4.20;78.50
63017;DHT22;50274;45.640;11.756;2022-12-07T01:13:12;4.20;78.50
63017;DHT22;50274;45.640;11.756;2022-12-07T01:15:44;4.10;78.40
63017;DHT22;50274;45.640;11.756;2022-12-07T01:18:11;4.10;78.50
63017;DHT22;50274;45.640;11.756;2022-12-07T01:20:37;4.10;78.60
63017;DHT22;50274;45.640;11.756;2022-12-07T01:23:03;4.10;78.60
63017;DHT22;50274;45.640;11.756;2022-12-07T01:25:29;4.10;78.70
63017;DHT22;50274;45.640;11.756;2022-12-07T01:27:55;4.10;78.70
63017;DHT22;50274;45.640;11.756;2022-12-07T01:30:21;4.10;78.60
63017;DHT22;50274;45.640;11.756;2022-12-07T01:32:49;4.10;78.50
63017;DHT22;50274;45.640;11.756;2022-12-07T01:35:15;4.10;78.50
63017;DHT22;50274;45.640;11.756;2022-12-07T01:37:41;4.00;78.50
63017;DHT22;50274;45.640;11.756;2022-12-07T01:40:08;4.10;78.50
63017;DHT22;50274;45.640;11.756;2022-12-07T01:42:34;4.00;78.50
63017;DHT22;50274;45.640;11.756;2022-12-07T01:47:51;4.00;78.40
63017;DHT22;50274;45.640;11.756;2022-12-07T01:50:18;4.00;78.40
63017;DHT22;50274;45.640;11.756;2022-12-07T01:52:46;3.90;78.50
63017;DHT22;50274;45.640;11.756;2022-12-07T01:55:15;4.00;78.50
63017;DHT22;50274;45.640;11.756;2022-12-07T01:57:49;3.90;78.40
63017;DHT22;50274;45.640;11.756;2022-12-07T02:00:17;4.00;78.30
63017;DHT22;50274;45.640;11.756;2022-12-07T02:02:47;3.90;78.30
63017;DHT22;50274;45.640;11.756;2022-12-07T02:05:14;3.90;78.30
63017;DHT22;50274;45.640;11.756;2022-12-07T02:07:40;3.90;78.30
63017;DHT22;50274;45.640;11.756;2022-12-07T02:10:20;3.80;78.30
63017;DHT22;50274;45.640;11.756;2022-12-07T02:12:51;3.80;78.30
63017;DHT22;50274;45.640;11.756;2022-12-07T02:15:20;3.80;78.30
63017;DHT22;50274;45.640;11.756;2022-12-07T02:17:56;3.80;78.30
63017;DHT22;50274;45.640;11.756;2022-12-07T02:28:34;3.70;78.30
63017;DHT22;50274;45.640;11.756;2022-12-07T02:31:08;3.70;78.40
63017;DHT22;50274;45.640;11.756;2022-12-07T02:33:44;3.70;78.40
63017;DHT22;50274;45.640;11.756;2022-12-07T02:36:21;3.70;78.40
63017;DHT22;50274;45.640;11.756;2022-12-07T02:38:58;3.70;78.40
63017;DHT22;50274;45.640;11.756;2022-12-07T02:41:52;3.70;78.40
63017;DHT22;50274;45.640;11.756;2022-12-07T02:44:24;3.70;78.40
63017;DHT22;50274;45.640;11.756;2022-12-07T02:47:06;3.60;78.50
63017;DHT22;50274;45.640;11.756;2022-12-07T02:49:32;3.70;78.50
63017;DHT22;50274;45.640;11.756;2022-12-07T02:51:58;3.70;78.60
63017;DHT22;50274;45.640;11.756;2022-12-07T02:54:27;3.60;78.40
63017;DHT22;50274;45.640;11.756;2022-12-07T03:00:38;3.60;78.50
63017;DHT22;50274;45.640;11.756;2022-12-07T03:03:07;3.60;78.50
63017;DHT22;50274;45.640;11.756;2022-12-07T03:06:20;3.50;78.60
63017;DHT22;50274;45.640;11.756;2022-12-07T03:09:02;3.50;78.70
63017;DHT22;50274;45.640;11.756;2022-12-07T03:11:56;3.50;78.80
63017;DHT22;50274;45.640;11.756;2022-12-07T03:14:34;3.50;78.90
63017;DHT22;50274;45.640;11.756;2022-12-07T03:17:18;3.50;78.90
63017;DHT22;50274;45.640;11.756;2022-12-07T03:19:46;3.50;78.80
63017;DHT22;50274;45.640;11.756;2022-12-07T03:22:14;3.50;78.80
63017;DHT22;50274;45.640;11.756;2022-12-07T03:24:54;3.50;78.80
63017;DHT22;50274;45.640;11.756;2022-12-07T03:27:34;3.40;78.90
63017;DHT22;50274;45.640;11.756;2022-12-07T03:30:15;3.40;79.00
63017;DHT22;50274;45.640;11.756;2022-12-07T03:35:30;3.40;79.10
63017;DHT22;50274;45.640;11.756;2022-12-07T03:38:00;3.40;79.10
63017;DHT22;50274;45.640;11.756;2022-12-07T03:40:48;3.40;79.10
63017;DHT22;50274;45.640;11.756;2022-12-07T03:43:17;3.40;79.10
63017;DHT22;50274;45.640;11.756;2022-12-07T03:45:48;3.40;79.20
63017;DHT22;50274;45.640;11.756;2022-12-07T03:48:32;3.40;79.20
63017;DHT22;50274;45.640;11.756;2022-12-07T03:51:11;3.50;79.20
63017;DHT22;50274;45.640;11.756;2022-12-07T03:53:51;3.50;79.00
63017;DHT22;50274;45.640;11.756;2022-12-07T03:56:20;3.50;79.00
63017;DHT22;50274;45.640;11.756;2022-12-07T03:58:47;3.50;79.00
63017;DHT22;50274;45.640;11.756;2022-12-07T04:01:14;3.50;79.10
63017;DHT22;50274;45.640;11.756;2022-12-07T04:03:39;3.50;79.10
63017;DHT22;50274;45.640;11.756;2022-12-07T04:06:05;3.50;79.10
63017;DHT22;50274;45.640;11.756;2022-12-07T04:08:31;3.50;79.20
63017;DHT22;50274;45.640;11.756;2022-12-07T04:10:57;3.50;79.20
63017;DHT22;50274;45.640;11.756;2022-12-07T04:13:23;3.40;79.20
63017;DHT22;50274;45.640;11.756;2022-12-07T04:15:49;3.40;79.30
63017;DHT22;50274;45.640;11.756;2022-12-07T04:18:15;3.40;79.30
63017;DHT22;50274;45.640;11.756;2022-12-07T04:20:41;3.40;79.30
63017;DHT22;50274;45.640;11.756;2022-12-07T04:23:06;3.50;79.20
63017;DHT22;50274;45.640;11.756;2022-12-07T04:25:32;3.50;79.20
63017;DHT22;50274;45.640;11.756;2022-12-07T04:27:58;3.50;79.30
63017;DHT22;50274;45.640;11.756;2022-12-07T04:30:24;3.50;79.20
63017;DHT22;50274;45.640;11.756;2022-12-07T04:32:52;3.50;79.10
63017;DHT22;50274;45.640;11.756;2022-12-07T04:35:18;3.40;79.10
63017;DHT22;50274;45.640;11.756;2022-12-07T04:37:44;3.40;79.10
63017;DHT22;50274;45.640;11.756;2022-12-07T04:40:12;3.40;79.10
63017;DHT22;50274;45.640;11.756;2022-12-07T04:42:39;3.40;79.10
63017;DHT22;50274;45.640;11.756;2022-12-07T04:45:06;3.30;79.10
63017;DHT22;50274;45.640;11.756;2022-12-07T04:47:32;3.30;79.10
63017;DHT22;50274;45.640;11.756;2022-12-07T04:49:58;3.30;79.10
63017;DHT22;50274;45.640;11.756;2022-12-07T04:52:23;3.30;79.10
63017;DHT22;50274;45.640;11.756;2022-12-07T04:54:49;3.30;79.10
63017;DHT22;50274;45.640;11.756;2022-12-07T04:57:15;3.30;79.10
63017;DHT22;50274;45.640;11.756;2022-12-07T04:59:41;3.30;79.10
63017;DHT22;50274;45.640;11.756;2022-12-07T05:02:07;3.30;79.10
63017;DHT22;50274;45.640;11.756;2022-12-07T05:04:33;3.30;79.10
63017;DHT22;50274;45.640;11.756;2022-12-07T05:06:58;3.30;79.10
63017;DHT22;50274;45.640;11.756;2022-12-07T05:09:24;3.30;79.10
63017;DHT22;50274;45.640;11.756;2022-12-07T05:11:50;3.30;79.10
63017;DHT22;50274;45.640;11.756;2022-12-07T05:14:18;3.30;79.00
63017;DHT22;50274;45.640;11.756;2022-12-07T05:16:47;3.20;79.10
63017;DHT22;50274;45.640;11.756;2022-12-07T05:19:13;3.20;79.10
63017;DHT22;50274;45.640;11.756;2022-12-07T05:21:39;3.20;79.00
63017;DHT22;50274;45.640;11.756;2022-12-07T05:24:06;3.20;79.00
63017;DHT22;50274;45.640;11.756;2022-12-07T05:26:33;3.20;79.00
63017;DHT22;50274;45.640;11.756;2022-12-07T05:28:59;3.20;79.00
63017;DHT22;50274;45.640;11.756;2022-12-07T05:31:26;3.20;79.10
63017;DHT22;50274;45.640;11.756;2022-12-07T05:33:52;3.20;79.10
63017;DHT22;50274;45.640;11.756;2022-12-07T05:36:21;3.20;79.00
63017;DHT22;50274;45.640;11.756;2022-12-07T05:38:49;3.20;79.00
63017;DHT22;50274;45.640;11.756;2022-12-07T05:41:17;3.20;78.90
63017;DHT22;50274;45.640;11.756;2022-12-07T05:44:05;3.20;78.80
63017;DHT22;50274;45.640;11.756;2022-12-07T05:46:33;3.20;78.80
63017;DHT22;50274;45.640;11.756;2022-12-07T05:48:59;3.20;78.80
63017;DHT22;50274;45.640;11.756;2022-12-07T05:51:25;3.20;78.80
63017;DHT22;50274;45.640;11.756;2022-12-07T05:53:54;3.20;78.70
63017;DHT22;50274;45.640;11.756;2022-12-07T05:56:20;3.20;78.80
63017;DHT22;50274;45.640;11.756;2022-12-07T05:58:46;3.20;78.80
63017;DHT22;50274;45.640;11.756;2022-12-07T06:01:31;3.20;78.80
63017;DHT22;50274;45.640;11.756;2022-12-07T06:03:57;3.10;78.70
63017;DHT22;50274;45.640;11.756;2022-12-07T06:06:22;3.10;78.60
63017;DHT22;50274;45.640;11.756;2022-12-07T06:08:48;3.10;78.70
63017;DHT22;50274;45.640;11.756;2022-12-07T06:11:14;3.10;78.70
63017;DHT22;50274;45.640;11.756;2022-12-07T06:13:59;3.10;78.70
63017;DHT22;50274;45.640;11.756;2022-12-07T06:16:25;3.10;78.70
63017;DHT22;50274;45.640;11.756;2022-12-07T06:18:50;3.00;78.80
63017;DHT22;50274;45.640;11.756;2022-12-07T06:21:18;3.00;78.70
63017;DHT22;50274;45.640;11.756;2022-12-07T06:23:44;3.00;78.80
63017;DHT22;50274;45.640;11.756;2022-12-07T06:26:13;3.00;78.80
63017;DHT22;50274;45.640;11.756;2022-12-07T06:28:40;3.00;78.80
63017;DHT22;50274;45.640;11.756;2022-12-07T06:31:06;3.00;78.80
63017;DHT22;50274;45.640;11.756;2022-12-07T06:33:33;3.00;78.80
63017;DHT22;50274;45.640;11.756;2022-12-07T06:36:01;3.00;78.80
63017;DHT22;50274;45.640;11.756;2022-12-07T06:38:29;3.00;78.80
63017;DHT22;50274;45.640;11.756;2022-12-07T06:40:57;3.00;78.80
63017;DHT22;50274;45.640;11.756;2022-12-07T06:43:25;3.00;78.80
63017;DHT22;50274;45.640;11.756;2022-12-07T06:45:51;3.00;78.80
63017;DHT22;50274;45.640;11.756;2022-12-07T06:48:17;3.10;78.80
63017;DHT22;50274;45.640;11.756;2022-12-07T06:50:49;3.00;78.70
63017;DHT22;50274;45.640;11.756;2022-12-07T06:53:15;3.10;78.60
63017;DHT22;50274;45.640;11.756;2022-12-07T06:55:41;3.00;78.50
63017;DHT22;50274;45.640;11.756;2022-12-07T06:58:07;3.00;78.10
63017;DHT22;50274;45.640;11.756;2022-12-07T07:00:33;3.00;78.20
63017;DHT22;50274;45.640;11.756;2022-12-07T07:03:00;3.10;78.30
63017;DHT22;50274;45.640;11.756;2022-12-07T07:05:27;3.10;78.50
63017;DHT22;50274;45.640;11.756;2022-12-07T07:07:52;3.20;78.60
63017;DHT22;50274;45.640;11.756;2022-12-07T07:10:18;3.20;78.60
63017;DHT22;50274;45.640;11.756;2022-12-07T07:12:44;3.30;78.70
63017;DHT22;50274;45.640;11.756;2022-12-07T07:15:10;3.30;78.60
63017;DHT22;50274;45.640;11.756;2022-12-07T07:17:37;3.30;78.80
63017;DHT22;50274;45.640;11.756;2022-12-07T07:20:03;3.30;78.80
63017;DHT22;50274;45.640;11.756;2022-12-07T07:22:29;3.30;78.90
63017;DHT22;50274;45.640;11.756;2022-12-07T07:24:55;3.30;79.00
63017;DHT22;50274;45.640;11.756;2022-12-07T07:27:21;3.40;79.00
63017;DHT22;50274;45.640;11.756;2022-12-07T07:29:46;3.40;79.00
63017;DHT22;50274;45.640;11.756;2022-12-07T07:32:12;3.50;79.10
63017;DHT22;50274;45.640;11.756;2022-12-07T07:34:39;3.50;79.00
63017;DHT22;50274;45.640;11.756;2022-12-07T07:37:05;3.50;79.10
63017;DHT22;50274;45.640;11.756;2022-12-07T07:39:34;3.50;79.10
63017;DHT22;50274;45.640;11.756;2022-12-07T07:42:00;3.60;79.10
63017;DHT22;50274;45.640;11.756;2022-12-07T07:44:25;3.60;79.10
63017;DHT22;50274;45.640;11.756;2022-12-07T07:46:51;3.70;79.10
63017;DHT22;50274;45.640;11.756;2022-12-07T07:49:17;3.70;79.10
63017;DHT22;50274;45.640;11.756;2022-12-07T07:51:43;3.80;79.10
63017;DHT22;50274;45.640;11.756;2022-12-07T07:54:09;3.90;79.10
63017;DHT22;50274;45.640;11.756;2022-12-07T07:56:34;3.90;79.00
63017;DHT22;50274;45.640;11.756;2022-12-07T07:59:00;4.00;78.90
63017;DHT22;50274;45.640;11.756;2022-12-07T08:01:26;4.00;78.80
63017;DHT22;50274;45.640;11.756;2022-12-07T08:03:52;4.10;78.80
63017;DHT22;50274;45.640;11.756;2022-12-07T08:06:17;4.20;78.80
63017;DHT22;50274;45.640;11.756;2022-12-07T08:08:43;4.20;78.90
63017;DHT22;50274;45.640;11.756;2022-12-07T08:11:10;4.30;79.00
63017;DHT22;50274;45.640;11.756;2022-12-07T08:13:37;4.40;78.90
63017;DHT22;50274;45.640;11.756;2022-12-07T08:16:06;4.50;78.90
63017;DHT22;50274;45.640;11.756;2022-12-07T08:18:52;4.60;78.90
63017;DHT22;50274;45.640;11.756;2022-12-07T08:21:18;4.70;78.70
63017;DHT22;50274;45.640;11.756;2022-12-07T08:23:43;4.80;78.60
63017;DHT22;50274;45.640;11.756;2022-12-07T08:26:11;4.80;78.50
63017;DHT22;50274;45.640;11.756;2022-12-07T08:28:38;4.90;78.30
63017;DHT22;50274;45.640;11.756;2022-12-07T08:31:10;5.00;78.10
63017;DHT22;50274;45.640;11.756;2022-12-07T08:33:36;5.10;77.90
63017;DHT22;50274;45.640;11.756;2022-12-07T08:36:06;5.20;77.80
63017;DHT22;50274;45.640;11.756;2022-12-07T08:38:33;5.30;77.70
63017;DHT22;50274;45.640;11.756;2022-12-07T08:40:59;5.40;77.70
63017;DHT22;50274;45.640;11.756;2022-12-07T08:43:25;5.50;77.70
63017;DHT22;50274;45.640;11.756;2022-12-07T08:49:04;5.70;77.60
63017;DHT22;50274;45.640;11.756;2022-12-07T08:51:30;5.80;77.50
63017;DHT22;50274;45.640;11.756;2022-12-07T08:53:59;5.90;77.50
63017;DHT22;50274;45.640;11.756;2022-12-07T08:56:26;6.00;77.30
63017;DHT22;50274;45.640;11.756;2022-12-07T08:58:53;6.10;77.20
63017;DHT22;50274;45.640;11.756;2022-12-07T09:01:19;6.20;77.20
63017;DHT22;50274;45.640;11.756;2022-12-07T09:03:45;6.30;77.00
63017;DHT22;50274;45.640;11.756;2022-12-07T09:06:10;6.40;77.00
63017;DHT22;50274;45.640;11.756;2022-12-07T09:08:46;6.50;76.80
63017;DHT22;50274;45.640;11.756;2022-12-07T09:11:12;6.60;76.50
63017;DHT22;50274;45.640;11.756;2022-12-07T09:13:38;6.80;76.40
63017;DHT22;50274;45.640;11.756;2022-12-07T09:16:04;6.90;76.20
63017;DHT22;50274;45.640;11.756;2022-12-07T09:18:30;7.00;76.10
63017;DHT22;50274;45.640;11.756;2022-12-07T09:20:56;7.10;75.90
63017;DHT22;50274;45.640;11.756;2022-12-07T09:23:22;7.30;75.70
63017;DHT22;50274;45.640;11.756;2022-12-07T09:25:48;7.40;75.50
63017;DHT22;50274;45.640;11.756;2022-12-07T09:28:14;7.60;75.00
63017;DHT22;50274;45.640;11.756;2022-12-07T09:30:46;7.60;74.50
63017;DHT22;50274;45.640;11.756;2022-12-07T09:33:12;7.80;74.30
63017;DHT22;50274;45.640;11.756;2022-12-07T09:35:38;7.90;73.80
63017;DHT22;50274;45.640;11.756;2022-12-07T09:38:24;8.00;73.60
63017;DHT22;50274;45.640;11.756;2022-12-07T09:40:55;8.20;72.60
63017;DHT22;50274;45.640;11.756;2022-12-07T09:43:25;8.40;72.30
63017;DHT22;50274;45.640;11.756;2022-12-07T09:45:53;8.60;71.90
63017;DHT22;50274;45.640;11.756;2022-12-07T09:48:35;8.70;71.80
63017;DHT22;50274;45.640;11.756;2022-12-07T09:51:03;8.90;71.70
63017;DHT22;50274;45.640;11.756;2022-12-07T09:53:38;9.10;71.10
63017;DHT22;50274;45.640;11.756;2022-12-07T09:56:05;9.20;70.50
63017;DHT22;50274;45.640;11.756;2022-12-07T09:58:34;9.40;70.00
63017;DHT22;50274;45.640;11.756;2022-12-07T10:03:37;9.80;69.30
63017;DHT22;50274;45.640;11.756;2022-12-07T10:06:04;9.90;68.80
63017;DHT22;50274;45.640;11.756;2022-12-07T10:08:32;10.10;68.10
63017;DHT22;50274;45.640;11.756;2022-12-07T10:10:58;10.30;67.80
63017;DHT22;50274;45.640;11.756;2022-12-07T10:13:37;10.50;67.50
63017;DHT22;50274;45.640;11.756;2022-12-07T10:16:04;10.70;67.20
63017;DHT22;50274;45.640;11.756;2022-12-07T10:18:36;11.00;66.90
63017;DHT22;50274;45.640;11.756;2022-12-07T10:23:33;11.40;65.80
63017;DHT22;50274;45.640;11.756;2022-12-07T10:26:03;11.60;64.30
63017;DHT22;50274;45.640;11.756;2022-12-07T10:28:44;11.80;64.00
63017;DHT22;50274;45.640;11.756;2022-12-07T10:31:18;12.00;63.60
63017;DHT22;50274;45.640;11.756;2022-12-07T10:33:57;12.20;63.10
63017;DHT22;50274;45.640;11.756;2022-12-07T10:39:23;12.70;62.30
63017;DHT22;50274;45.640;11.756;2022-12-07T10:41:57;13.00;62.00
63017;DHT22;50274;45.640;11.756;2022-12-07T10:44:33;13.10;61.40
63017;DHT22;50274;45.640;11.756;2022-12-07T11:08:55;14.50;55.70
63017;DHT22;50274;45.640;11.756;2022-12-07T11:11:37;14.60;55.60
63017;DHT22;50274;45.640;11.756;2022-12-07T11:14:28;14.80;55.10
63017;DHT22;50274;45.640;11.756;2022-12-07T11:17:42;14.90;54.70
63017;DHT22;50274;45.640;11.756;2022-12-07T11:22:40;15.10;52.90
63017;DHT22;50274;45.640;11.756;2022-12-07T11:25:23;15.20;52.90
63017;DHT22;50274;45.640;11.756;2022-12-07T11:28:13;15.30;52.90
63017;DHT22;50274;45.640;11.756;2022-12-07T11:30:52;15.50;52.50
63017;DHT22;50274;45.640;11.756;2022-12-07T11:33:34;15.60;51.70
63017;DHT22;50274;45.640;11.756;2022-12-07T11:38:42;15.70;50.90
63017;DHT22;50274;45.640;11.756;2022-12-07T11:41:09;15.80;50.70
63017;DHT22;50274;45.640;11.756;2022-12-07T11:46:43;16.10;50.20
63017;DHT22;50274;45.640;11.756;2022-12-07T11:49:27;16.10;49.50
63017;DHT22;50274;45.640;11.756;2022-12-07T11:51:58;16.20;49.70
63017;DHT22;50274;45.640;11.756;2022-12-07T11:54:32;16.30;49.80
63017;DHT22;50274;45.640;11.756;2022-12-07T11:57:04;16.40;49.30
63017;DHT22;50274;45.640;11.756;2022-12-07T11:59:38;16.50;48.90
63017;DHT22;50274;45.640;11.756;2022-12-07T12:02:32;16.50;48.30
63017;DHT22;50274;45.640;11.756;2022-12-07T12:05:17;16.60;48.50
63017;DHT22;50274;45.640;11.756;2022-12-07T12:07:46;16.60;48.00
63017;DHT22;50274;45.640;11.756;2022-12-07T12:13:19;16.60;47.50
63017;DHT22;50274;45.640;11.756;2022-12-07T12:21:20;16.90;47.00
63017;DHT22;50274;45.640;11.756;2022-12-07T12:24:02;16.90;47.10
63017;DHT22;50274;45.640;11.756;2022-12-07T12:26:32;16.90;47.60
63017;DHT22;50274;45.640;11.756;2022-12-07T12:29:02;17.00;47.40
63017;DHT22;50274;45.640;11.756;2022-12-07T12:31:31;17.10;47.00
63017;DHT22;50274;45.640;11.756;2022-12-07T12:34:03;17.10;46.00
63017;DHT22;50274;45.640;11.756;2022-12-07T12:46:58;17.00;45.80
63017;DHT22;50274;45.640;11.756;2022-12-07T12:57:30;16.90;46.70
63017;DHT22;50274;45.640;11.756;2022-12-07T12:59:58;16.80;47.00
63017;DHT22;50274;45.640;11.756;2022-12-07T13:02:37;16.80;47.60
63017;DHT22;50274;45.640;11.756;2022-12-07T13:05:19;16.70;48.00
63017;DHT22;50274;45.640;11.756;2022-12-07T13:12:58;16.60;47.10
63017;DHT22;50274;45.640;11.756;2022-12-07T13:15:45;16.50;47.70
63017;DHT22;50274;45.640;11.756;2022-12-07T13:18:24;16.40;48.00
63017;DHT22;50274;45.640;11.756;2022-12-07T13:20:59;16.30;48.20
63017;DHT22;50274;45.640;11.756;2022-12-07T13:26:18;16.10;48.40
63017;DHT22;50274;45.640;11.756;2022-12-07T13:28:49;16.00;48.80
63017;DHT22;50274;45.640;11.756;2022-12-07T13:31:35;16.00;48.90
63017;DHT22;50274;45.640;11.756;2022-12-07T13:34:03;15.90;49.10
63017;DHT22;50274;45.640;11.756;2022-12-07T13:36:33;15.80;47.50
63017;DHT22;50274;45.640;11.756;2022-12-07T13:41:42;15.60;47.00
63017;DHT22;50274;45.640;11.756;2022-12-07T13:44:12;15.40;47.10
63017;DHT22;50274;45.640;11.756;2022-12-07T13:49:46;15.20;48.30
63017;DHT22;50274;45.640;11.756;2022-12-07T13:55:29;15.00;49.50
63017;DHT22;50274;45.640;11.756;2022-12-07T13:57:32;14.80;49.90
63017;DHT22;50274;45.640;11.756;2022-12-07T14:03:27;14.60;50.20
63017;DHT22;50274;45.640;11.756;2022-12-07T14:06:14;14.50;50.70
63017;DHT22;50274;45.640;11.756;2022-12-07T14:08:42;14.40;51.20
63017;DHT22;50274;45.640;11.756;2022-12-07T14:11:17;14.20;51.60
63017;DHT22;50274;45.640;11.756;2022-12-07T14:13:51;14.10;52.00
63017;DHT22;50274;45.640;11.756;2022-12-07T14:16:34;14.00;52.40
63017;DHT22;50274;45.640;11.756;2022-12-07T14:19:02;13.80;52.10
63017;DHT22;50274;45.640;11.756;2022-12-07T14:21:32;13.70;52.60
63017;DHT22;50274;45.640;11.756;2022-12-07T14:24:16;13.60;53.10
63017;DHT22;50274;45.640;11.756;2022-12-07T14:26:47;13.50;53.40
63017;DHT22;50274;45.640;11.756;2022-12-07T14:31:52;13.20;55.00
63017;DHT22;50274;45.640;11.756;2022-12-07T14:34:20;13.00;55.70
63017;DHT22;50274;45.640;11.756;2022-12-07T14:36:47;12.90;56.20
63017;DHT22;50274;45.640;11.756;2022-12-07T14:39:12;12.70;56.60
63017;DHT22;50274;45.640;11.756;2022-12-07T14:41:38;12.60;57.30
63017;DHT22;50274;45.640;11.756;2022-12-07T14:44:17;12.50;57.70
63017;DHT22;50274;45.640;11.756;2022-12-07T14:46:45;12.30;58.20
63017;DHT22;50274;45.640;11.756;2022-12-07T14:49:11;12.10;58.60
63017;DHT22;50274;45.640;11.756;2022-12-07T14:51:39;12.00;59.20
63017;DHT22;50274;45.640;11.756;2022-12-07T14:54:11;12.00;59.50
63017;DHT22;50274;45.640;11.756;2022-12-07T14:56:39;11.90;59.80
63017;DHT22;50274;45.640;11.756;2022-12-07T14:59:04;11.80;60.30
63017;DHT22;50274;45.640;11.756;2022-12-07T15:01:30;11.80;60.70
63017;DHT22;50274;45.640;11.756;2022-12-07T15:03:56;11.70;60.90
63017;DHT22;50274;45.640;11.756;2022-12-07T15:06:22;11.70;61.00
63017;DHT22;50274;45.640;11.756;2022-12-07T15:08:48;11.70;61.30
63017;DHT22;50274;45.640;11.756;2022-12-07T15:11:16;11.60;61.50
63017;DHT22;50274;45.640;11.756;2022-12-07T15:13:43;11.60;61.70
63017;DHT22;50274;45.640;11.756;2022-12-07T15:16:27;11.50;61.90
63017;DHT22;50274;45.640;11.756;2022-12-07T15:18:53;11.40;62.10
63017;DHT22;50274;45.640;11.756;2022-12-07T15:21:19;11.30;62.40
63017;DHT22;50274;45.640;11.756;2022-12-07T15:23:46;11.20;62.70
63017;DHT22;50274;45.640;11.756;2022-12-07T15:26:12;11.10;63.00
63017;DHT22;50274;45.640;11.756;2022-12-07T15:28:39;11.10;63.20
63017;DHT22;50274;45.640;11.756;2022-12-07T15:31:14;11.00;63.50
63017;DHT22;50274;45.640;11.756;2022-12-07T15:33:41;10.90;63.80
63017;DHT22;50274;45.640;11.756;2022-12-07T15:36:07;10.80;63.90
63017;DHT22;50274;45.640;11.756;2022-12-07T15:38:33;10.70;64.10
63017;DHT22;50274;45.640;11.756;2022-12-07T15:40:59;10.70;64.30
63017;DHT22;50274;45.640;11.756;2022-12-07T15:43:25;10.60;64.50
63017;DHT22;50274;45.640;11.756;2022-12-07T15:46:09;10.60;64.70
63017;DHT22;50274;45.640;11.756;2022-12-07T15:48:34;10.50;64.90
63017;DHT22;50274;45.640;11.756;2022-12-07T15:51:05;10.40;65.00
63017;DHT22;50274;45.640;11.756;2022-12-07T15:53:31;10.30;65.30
63017;DHT22;50274;45.640;11.756;2022-12-07T15:55:57;10.30;65.40
63017;DHT22;50274;45.640;11.756;2022-12-07T15:58:23;10.20;65.50
63017;DHT22;50274;45.640;11.756;2022-12-07T16:00:49;10.20;65.70
63017;DHT22;50274;45.640;11.756;2022-12-07T16:03:14;10.10;65.80
63017;DHT22;50274;45.640;11.756;2022-12-07T16:05:40;10.10;66.00
63017;DHT22;50274;45.640;11.756;2022-12-07T16:08:06;10.00;66.10
63017;DHT22;50274;45.640;11.756;2022-12-07T16:10:32;9.90;66.20
63017;DHT22;50274;45.640;11.756;2022-12-07T16:12:58;9.90;66.30
63017;DHT22;50274;45.640;11.756;2022-12-07T16:15:24;9.80;66.50
63017;DHT22;50274;45.640;11.756;2022-12-07T16:17:51;9.80;66.60
63017;DHT22;50274;45.640;11.756;2022-12-07T16:20:17;9.70;66.80
63017;DHT22;50274;45.640;11.756;2022-12-07T16:22:43;9.70;66.90
63017;DHT22;50274;45.640;11.756;2022-12-07T16:25:08;9.60;67.00
63017;DHT22;50274;45.640;11.756;2022-12-07T16:27:34;9.60;67.00
63017;DHT22;50274;45.640;11.756;2022-12-07T16:30:00;9.50;67.00
63017;DHT22;50274;45.640;11.756;2022-12-07T16:32:26;9.40;67.10
63017;DHT22;50274;45.640;11.756;2022-12-07T16:34:52;9.30;67.10
63017;DHT22;50274;45.640;11.756;2022-12-07T16:37:18;9.20;67.30
63017;DHT22;50274;45.640;11.756;2022-12-07T16:39:44;9.20;67.30
63017;DHT22;50274;45.640;11.756;2022-12-07T16:42:10;9.10;67.40
63017;DHT22;50274;45.640;11.756;2022-12-07T16:44:35;9.10;67.50
63017;DHT22;50274;45.640;11.756;2022-12-07T16:47:01;9.00;67.70
63017;DHT22;50274;45.640;11.756;2022-12-07T16:49:27;8.90;67.80
63017;DHT22;50274;45.640;11.756;2022-12-07T16:51:53;8.80;68.00
63017;DHT22;50274;45.640;11.756;2022-12-07T16:54:19;8.80;68.10
63017;DHT22;50274;45.640;11.756;2022-12-07T16:56:45;8.70;68.20
63017;DHT22;50274;45.640;11.756;2022-12-07T16:59:10;8.70;68.40
63017;DHT22;50274;45.640;11.756;2022-12-07T17:01:37;8.70;68.50
63017;DHT22;50274;45.640;11.756;2022-12-07T17:04:03;8.60;68.50
63017;DHT22;50274;45.640;11.756;2022-12-07T17:06:30;8.60;68.60
63017;DHT22;50274;45.640;11.756;2022-12-07T17:08:56;8.50;68.70
63017;DHT22;50274;45.640;11.756;2022-12-07T17:11:28;8.50;68.70
63017;DHT22;50274;45.640;11.756;2022-12-07T17:13:57;8.40;68.80
63017;DHT22;50274;45.640;11.756;2022-12-07T17:16:41;8.40;68.80
63017;DHT22;50274;45.640;11.756;2022-12-07T17:19:09;8.30;68.80
63017;DHT22;50274;45.640;11.756;2022-12-07T17:21:36;8.30;68.90
63017;DHT22;50274;45.640;11.756;2022-12-07T17:24:04;8.30;69.00
63017;DHT22;50274;45.640;11.756;2022-12-07T17:26:31;8.30;69.10
63017;DHT22;50274;45.640;11.756;2022-12-07T17:28:57;8.20;69.20
63017;DHT22;50274;45.640;11.756;2022-12-07T17:31:24;8.20;69.20